Portada
METAR-TAF:

METAR-TAF

Aeroports :

Juliaca, Perú

latitud: 15-29S, longitud: 070-09W, altitud: 3826 m

Observació

L'informe es va fer fa 6 hores i 28 minuts, a les 23:00 UTC
Vent 9 kt del Sud-Est
Temperatura 13°C
Humitat 14%
Pressió 1037 hPa
Visibilitat 10 km o més
sense núvols per sota de 1500 mi sense presència de cumulonimbus.

METAR: SPJL 032300Z 13009KT CAVOK 13/M14 Q1037 RMK PP000

Hora: 00:28 (05:28 UTC)

Pronòstic

L'informe es va fer fa 10 hores i 28 minuts, a les 19:00 UTC
Pronòstic vàlid del 03 a les 18 UTC al 04 a les 18 UTC
Vent 7 kt del Est
Visibilitat 10 km o més
sense núvols per sota de 1500 mi sense presència de cumulonimbus.
A partir de les 03 a les 2330 UTC
Vent 4 kt del Sud-Est
Visibilitat 10 km o més
sense núvols per sota de 1500 mi sense presència de cumulonimbus.

TAF: SPJL 031900Z 0318/0418 10007KT CAVOK TX19/0319Z TNM05/0410Z FM032330 14004KT CAVOK

Observacions i pronòstics meteorològics de més de 4000 aeroports (METAR i TAF).

Les estacions disponibles són els punts grocs i vermells al mapa.

Posi el ratolí al punt desitjat per veure el nom de l'estació.

Feu clic per veure les observacions i els pronòstics meteorològics.

Per canviar el mapa: feu clic els botons verds amb una creu de color negre per apropar; al botó verd amb un guió per allunyar la imatge; o en les fletxes verdes per a mapes adjacents.


METAR-TAF: